Time;durP1;ratioP1;P1;durP2;ratioP2;P2;SDS_P1;SDS_P2;PMS_P1;PMS_P2;Temp;Humidity;BMP_temperature;BMP_pressure;BME280_temperature;BME280_humidity;BME280_pressure;Samples;Min_cycle;Max_cycle;Signal;HPM_P1;HPM_P2
2022/04/21 00:02:14;;;;;;;;;28.50;25.00;;;;;21.52;46.02;100488.73;110504;1259;19630;-55
2022/04/21 00:04:42;;;;;;;;;26.50;24.00;;;;;21.50;45.97;100487.52;110727;1258;20326;-54
2022/04/21 00:07:09;;;;;;;;;25.67;24.67;;;;;21.50;45.97;100491.38;110328;1259;19676;-52
2022/04/21 00:09:36;;;;;;;;;28.50;25.00;;;;;21.51;46.12;100492.77;110533;1259;19553;-55
2022/04/21 00:12:04;;;;;;;;;23.67;22.67;;;;;21.52;45.93;100494.55;110513;1258;23029;-56
2022/04/21 00:14:31;;;;;;;;;30.67;25.00;;;;;21.52;46.03;100496.77;110551;1259;19274;-53
2022/04/21 00:16:58;;;;;;;;;24.00;23.00;;;;;21.51;45.88;100495.16;110484;1259;20095;-54
2022/04/21 00:19:26;;;;;;;;;27.50;25.00;;;;;21.51;45.87;100495.08;110711;1258;20352;-57
2022/04/21 00:24:35;;;;;;;;;26.00;25.00;;;;;21.49;45.87;100486.29;110149;1264;23577;-55
2022/04/21 00:27:02;;;;;;;;;25.50;24.50;;;;;21.48;46.09;100489.60;110092;1265;26980;-53
2022/04/21 00:29:30;;;;;;;;;29.00;28.00;;;;;21.48;46.12;100487.86;110203;1264;19605;-53
2022/04/21 00:31:57;;;;;;;;;25.50;22.50;;;;;21.48;45.97;100489.34;110147;1265;19647;-56
2022/04/21 00:34:24;;;;;;;;;27.00;25.00;;;;;21.48;46.03;100495.13;110235;1264;20861;-54
2022/04/21 00:36:52;;;;;;;;;24.00;22.00;;;;;21.47;46.03;100500.21;110208;1264;19388;-53
2022/04/21 00:39:19;;;;;;;;;28.67;25.00;;;;;21.46;45.98;100499.91;110218;1265;19620;-52
2022/04/21 00:41:46;;;;;;;;;26.67;25.00;;;;;21.47;45.92;100504.89;110206;1265;20358;-51
2022/04/21 00:44:14;;;;;;;;;23.33;20.67;;;;;21.45;45.99;100499.85;110180;1264;23686;-52
2022/04/21 00:46:41;;;;;;;;;29.00;27.67;;;;;21.45;45.95;100499.47;110130;1265;19510;-54
2022/04/21 00:49:09;;;;;;;;;25.00;25.00;;;;;21.45;46.00;100499.77;110264;1264;23107;-53
2022/04/21 00:51:36;;;;;;;;;30.00;25.00;;;;;21.45;45.84;100500.95;110234;1264;19441;-53
2022/04/21 00:54:03;;;;;;;;;28.33;23.67;;;;;21.46;45.82;100494.76;110163;1264;19746;-55
2022/04/21 00:56:31;;;;;;;;;28.33;25.33;;;;;21.46;45.89;100496.39;110147;1265;20950;-55
2022/04/21 00:58:58;;;;;;;;;24.33;22.00;;;;;21.46;45.95;100492.44;110203;1264;22991;-52
2022/04/21 01:04:11;;;;;;;;;21.33;20.33;;;;;21.48;45.91;100494.63;110501;1261;20264;-53
2022/04/21 01:06:38;;;;;;;;;28.00;22.00;;;;;21.47;45.72;100495.23;110431;1261;19298;-55
2022/04/21 01:09:06;;;;;;;;;21.00;20.00;;;;;21.48;45.79;100500.20;110453;1261;19560;-54
2022/04/21 01:11:33;;;;;;;;;24.33;21.00;;;;;21.47;45.69;100500.48;110424;1260;20328;-53
2022/04/21 01:14:01;;;;;;;;;24.33;20.33;;;;;21.49;45.85;100505.16;110464;1260;19253;-53
2022/04/21 01:16:28;;;;;;;;;25.00;23.67;;;;;21.47;45.69;100506.17;110509;1261;19784;-53
2022/04/21 01:18:56;;;;;;;;;26.33;24.00;;;;;21.47;45.85;100512.69;110460;1261;23021;-56
2022/04/21 01:21:23;;;;;;;;;29.00;21.50;;;;;21.48;45.70;100514.41;110427;1261;19336;-53
2022/04/21 01:23:50;;;;;;;;;26.00;24.67;;;;;21.48;45.73;100512.06;110474;1261;23093;-54
2022/04/21 01:26:18;;;;;;;;;21.67;19.33;;;;;21.48;45.60;100513.25;110416;1260;20313;-54
2022/04/21 01:28:45;;;;;;;;;22.00;21.00;;;;;21.47;45.59;100510.45;110461;1261;19241;-54
2022/04/21 01:31:12;;;;;;;;;26.67;25.00;;;;;21.47;45.64;100508.15;110458;1260;19581;-54
2022/04/21 01:33:40;;;;;;;;;23.00;22.00;;;;;21.46;45.77;100514.39;110396;1260;20464;-56
2022/04/21 01:36:08;;;;;;;;;25.00;24.33;;;;;21.47;45.67;100518.48;110444;1261;23084;-53
2022/04/21 01:41:34;;;;;;;;;20.67;20.00;;;;;21.46;45.81;100512.49;110173;1265;20477;-57
2022/04/21 01:44:03;;;;;;;;;20.67;20.67;;;;;21.44;45.76;100513.36;110193;1264;19747;-54
2022/04/21 01:46:30;;;;;;;;;19.67;18.33;;;;;21.44;45.68;100513.93;110278;1264;19545;-56
2022/04/21 01:48:57;;;;;;;;;22.33;20.33;;;;;21.44;45.86;100510.29;110195;1264;20360;-57
2022/04/21 01:51:25;;;;;;;;;28.00;26.00;;;;;21.44;45.71;100508.65;110211;1264;23882;-56
2022/04/21 01:53:52;;;;;;;;;21.67;19.67;;;;;21.43;45.75;100508.40;110199;1264;19847;-53
2022/04/21 01:56:19;;;;;;;;;21.67;20.00;;;;;21.43;45.69;100507.14;110238;1264;20398;-53
2022/04/21 01:58:47;;;;;;;;;25.00;24.00;;;;;21.43;45.78;100511.70;110233;1264;23010;-53
2022/04/21 02:01:15;;;;;;;;;20.50;18.00;;;;;21.44;45.69;100515.98;110302;1264;19669;-53
2022/04/21 02:03:42;;;;;;;;;30.33;22.33;;;;;21.44;45.78;100515.10;110215;1264;21777;-53
2022/04/21 02:06:09;;;;;;;;;22.00;21.00;;;;;21.43;45.78;100510.28;110226;1264;23609;-53
2022/04/21 02:08:37;;;;;;;;;23.00;21.67;;;;;21.42;45.59;100505.90;110213;1264;22518;-55
2022/04/21 02:11:04;;;;;;;;;24.67;22.00;;;;;21.43;45.68;100509.56;110198;1264;23206;-56
2022/04/21 02:13:31;;;;;;;;;24.67;22.00;;;;;21.43;45.55;100507.42;110437;1260;19550;-56
2022/04/21 02:15:59;;;;;;;;;25.00;23.00;;;;;21.42;45.68;100509.09;110410;1260;19661;-54
2022/04/21 02:18:26;;;;;;;;;22.67;20.00;;;;;21.43;45.60;100503.15;110441;1261;20604;-55
2022/04/21 02:20:53;;;;;;;;;23.00;21.33;;;;;21.42;45.70;100502.21;110400;1260;24420;-54
2022/04/21 02:23:21;;;;;;;;;24.33;23.33;;;;;21.42;45.65;100501.88;110463;1261;19519;-54
2022/04/21 02:25:48;;;;;;;;;24.00;21.67;;;;;21.43;45.65;100506.80;110457;1261;23663;-55
2022/04/21 02:28:15;;;;;;;;;22.00;21.00;;;;;21.42;45.63;100511.70;110502;1260;19437;-55
2022/04/21 02:30:43;;;;;;;;;25.00;21.50;;;;;21.42;45.73;100510.77;110439;1260;23861;-56
2022/04/21 02:33:10;;;;;;;;;25.33;22.33;;;;;21.42;45.51;100511.70;110453;1260;20277;-52
2022/04/21 02:35:38;;;;;;;;;20.33;20.33;;;;;21.42;45.52;100516.10;110458;1261;23430;-53
2022/04/21 02:38:05;;;;;;;;;23.67;22.00;;;;;21.41;45.62;100518.71;110443;1261;19617;-51
2022/04/21 02:40:32;;;;;;;;;20.33;18.00;;;;;21.41;45.67;100519.06;110478;1261;23674;-55
2022/04/21 02:43:00;;;;;;;;;21.00;17.00;;;;;21.42;45.65;100519.73;110456;1261;19333;-52
2022/04/21 02:45:27;;;;;;;;;21.33;18.67;;;;;21.41;45.66;100523.02;110435;1261;22191;-51
2022/04/21 02:47:54;;;;;;;;;19.00;17.33;;;;;21.42;45.56;100523.36;110444;1260;20455;-54
2022/04/21 02:50:22;;;;;;;;;20.50;20.50;;;;;21.42;45.53;100526.79;110443;1261;19246;-53
2022/04/21 02:52:50;;;;;;;;;22.00;21.67;;;;;21.41;45.62;100526.81;110443;1260;24655;-54
2022/04/21 02:58:02;;;;;;;;;17.00;16.00;;;;;21.41;45.48;100532.11;110475;1260;19231;-53
2022/04/21 03:00:29;;;;;;;;;23.67;21.00;;;;;21.41;45.58;100530.91;110313;1261;23055;-52
2022/04/21 03:02:57;;;;;;;;;20.00;17.67;;;;;21.40;45.61;100534.98;110340;1262;20348;-55
2022/04/21 03:05:24;;;;;;;;;17.67;17.67;;;;;21.41;45.52;100538.71;110454;1262;19309;-53
2022/04/21 03:07:51;;;;;;;;;17.00;16.50;;;;;21.41;45.67;100539.64;110439;1261;19903;-54
2022/04/21 03:10:19;;;;;;;;;23.33;20.67;;;;;21.40;45.79;100540.84;110499;1261;20568;-52
2022/04/21 03:12:46;;;;;;;;;20.33;18.33;;;;;21.40;45.65;100543.95;110439;1261;19225;-56
2022/04/21 03:15:13;;;;;;;;;17.00;16.00;;;;;21.39;45.65;100547.16;110467;1260;19506;-53
2022/04/21 03:17:41;;;;;;;;;21.00;18.67;;;;;21.39;45.63;100549.68;110481;1260;20436;-53
2022/04/21 03:20:08;;;;;;;;;17.67;17.67;;;;;21.37;45.57;100553.14;110392;1260;19548;-53
2022/04/21 03:25:21;;;;;;;;;19.33;18.67;;;;;21.39;45.62;100543.50;110381;1261;20442;-54
2022/04/21 03:27:50;;;;;;;;;20.67;19.00;;;;;21.40;45.53;100546.88;110421;1260;19145;-52
2022/04/21 03:30:17;;;;;;;;;21.67;17.67;;;;;21.41;45.54;100548.20;110473;1261;19608;-50
2022/04/21 03:32:45;;;;;;;;;16.50;16.50;;;;;21.41;45.72;100548.50;110398;1260;20351;-51
2022/04/21 03:35:12;;;;;;;;;25.00;21.67;;;;;21.40;45.71;100547.31;110485;1260;23047;-52
2022/04/21 03:37:39;;;;;;;;;21.33;19.33;;;;;21.39;45.60;100545.06;110495;1261;19660;-52
2022/04/21 03:40:07;;;;;;;;;20.67;20.00;;;;;21.41;45.49;100549.46;110486;1261;20561;-54
2022/04/21 03:42:34;;;;;;;;;20.00;18.67;;;;;21.40;45.55;100549.87;110469;1261;19708;-56
2022/04/21 03:45:01;;;;;;;;;20.00;17.33;;;;;21.39;45.59;100543.98;110430;1260;19990;-53
2022/04/21 03:47:29;;;;;;;;;21.00;17.33;;;;;21.41;45.48;100545.95;110457;1260;22668;-56
2022/04/21 03:49:56;;;;;;;;;20.00;18.67;;;;;21.39;45.45;100547.33;110435;1261;19256;-54
2022/04/21 03:52:23;;;;;;;;;20.67;17.67;;;;;21.39;45.59;100551.10;110489;1260;22958;-55
2022/04/21 03:54:51;;;;;;;;;17.33;15.33;;;;;21.39;45.55;100553.08;110458;1261;20553;-52
2022/04/21 03:57:18;;;;;;;;;17.33;14.67;;;;;21.39;45.56;100552.06;110452;1261;23712;-54
2022/04/21 03:59:45;;;;;;;;;20.00;19.67;;;;;21.39;45.54;100554.92;110455;1261;19543;-53
2022/04/21 04:02:13;;;;;;;;;18.33;17.33;;;;;21.38;45.62;100551.09;110421;1261;20187;-52
2022/04/21 04:04:40;;;;;;;;;17.00;16.33;;;;;21.38;45.47;100554.36;110443;1261;19146;-53
2022/04/21 04:12:37;;;;;;;;;14.33;14.33;;;;;21.37;45.79;100550.48;110454;1260;23151;-52
2022/04/21 04:15:05;;;;;;;;;17.67;16.67;;;;;21.37;45.55;100551.41;110467;1260;19572;-53
2022/04/21 04:17:32;;;;;;;;;17.33;16.33;;;;;21.35;45.76;100549.75;110442;1261;20310;-54
2022/04/21 04:20:00;;;;;;;;;17.33;15.67;;;;;21.35;45.63;100554.34;110428;1260;19306;-54
2022/04/21 04:22:27;;;;;;;;;18.50;16.50;;;;;21.35;45.70;100557.76;110502;1261;19544;-53
2022/04/21 04:24:56;;;;;;;;;21.00;18.00;;;;;21.34;45.63;100562.05;110469;1262;27509;-54
2022/04/21 04:27:23;;;;;;;;;16.67;15.00;;;;;21.35;45.54;100569.03;110466;1260;21490;-53
2022/04/21 04:29:50;;;;;;;;;16.67;15.33;;;;;21.33;45.56;100572.31;110461;1261;19479;-55
2022/04/21 04:32:18;;;;;;;;;16.67;16.00;;;;;21.33;45.75;100577.55;110383;1260;21633;-54
2022/04/21 04:34:45;;;;;;;;;20.33;17.67;;;;;21.32;45.60;100581.58;110456;1260;19318;-54
2022/04/21 04:37:12;;;;;;;;;16.00;15.00;;;;;21.31;45.61;100585.09;110463;1261;23032;-55
2022/04/21 04:39:40;;;;;;;;;19.33;16.33;;;;;21.31;45.63;100577.45;110465;1260;20305;-56
2022/04/21 04:42:21;;;;;;;;;16.00;15.00;;;;;21.31;45.78;100581.61;110436;1261;19224;-54
2022/04/21 04:44:48;;;;;;;;;17.67;17.00;;;;;21.32;45.72;100581.70;110482;1261;23677;-55
2022/04/21 04:47:15;;;;;;;;;18.00;15.67;;;;;21.33;45.71;100588.84;110409;1261;20313;-54
2022/04/21 04:49:43;;;;;;;;;19.00;16.50;;;;;21.33;45.61;100586.67;110479;1261;23107;-54
2022/04/21 04:52:10;;;;;;;;;17.67;14.00;;;;;21.34;45.61;100591.63;110539;1260;19573;-56
2022/04/21 04:54:38;;;;;;;;;17.00;16.00;;;;;21.36;45.55;100595.27;110410;1261;20434;-55
2022/04/21 04:57:05;;;;;;;;;17.33;17.33;;;;;21.36;45.69;100591.95;110471;1261;19313;-54
2022/04/21 04:59:32;;;;;;;;;15.00;14.50;;;;;21.44;45.78;100595.40;110462;1261;19539;-57
2022/04/21 05:02:01;;;;;;;;;14.00;13.33;;;;;21.49;45.90;100589.55;110490;1259;22757;-53
2022/04/21 05:04:28;;;;;;;;;16.00;15.33;;;;;21.51;45.68;100598.53;110618;1258;24152;-53
2022/04/21 05:06:57;;;;;;;;;16.67;15.33;;;;;21.50;46.41;100603.02;110477;1258;19718;-53
2022/04/21 05:09:24;;;;;;;;;16.33;16.00;;;;;21.48;47.15;100598.79;110623;1258;21987;-56
2022/04/21 05:11:52;;;;;;;;;20.67;18.00;;;;;21.47;47.03;100597.18;110696;1258;19340;-53
2022/04/21 05:14:19;;;;;;;;;20.00;18.67;;;;;21.46;46.67;100599.30;110487;1258;19569;-55
2022/04/21 05:16:47;;;;;;;;;16.00;14.00;;;;;21.47;46.58;100600.57;110503;1259;24363;-55
2022/04/21 05:19:14;;;;;;;;;20.00;17.00;;;;;21.47;47.13;100598.44;110645;1258;19312;-55
2022/04/21 05:21:42;;;;;;;;;13.67;13.67;;;;;21.51;47.52;100600.55;110459;1259;19692;-51
2022/04/21 05:24:10;;;;;;;;;17.67;17.00;;;;;21.54;47.67;100607.82;110542;1258;21910;-54
2022/04/21 05:26:38;;;;;;;;;17.00;16.67;;;;;21.56;48.80;100602.80;110561;1258;19622;-54
2022/04/21 05:30:55;;;;;;;;;16.67;13.33;;;;;21.60;49.08;100599.48;110460;1259;19573;-52
2022/04/21 05:31:52;;;;;;;;;15.33;15.00;;;;;21.64;49.35;100600.70;110668;1258;20327;-53
2022/04/21 05:34:20;;;;;;;;;18.67;17.33;;;;;21.70;49.64;100601.43;110538;1258;23085;-53
2022/04/21 05:36:47;;;;;;;;;16.00;14.00;;;;;21.72;49.60;100600.62;110576;1258;19589;-54
2022/04/21 05:39:14;;;;;;;;;14.00;13.33;;;;;21.70;49.35;100603.14;110515;1258;20429;-55
2022/04/21 05:41:43;;;;;;;;;16.00;14.00;;;;;21.71;49.62;100607.77;110410;1259;19183;-53
2022/04/21 05:44:10;;;;;;;;;21.00;16.00;;;;;21.71;49.78;100609.15;110419;1259;23346;-54
2022/04/21 05:46:38;;;;;;;;;16.50;13.00;;;;;21.70;49.80;100613.31;110435;1260;20257;-57
2022/04/21 05:49:05;;;;;;;;;14.00;13.00;;;;;21.74;49.66;100613.00;110542;1259;23025;-56
2022/04/21 05:51:33;;;;;;;;;12.33;10.67;;;;;21.72;49.66;100612.98;110641;1258;19734;-57
2022/04/21 05:54:00;;;;;;;;;14.00;13.00;;;;;21.67;49.62;100613.60;110592;1258;20528;-55
2022/04/21 05:56:27;;;;;;;;;16.33;14.67;;;;;21.64;49.69;100616.86;110453;1259;19245;-57
2022/04/21 05:58:55;;;;;;;;;14.67;13.33;;;;;21.61;49.77;100612.84;110684;1258;19575;-55
2022/04/21 06:01:22;;;;;;;;;16.67;14.00;;;;;21.60;50.11;100609.05;110634;1258;20931;-54
2022/04/21 06:03:49;;;;;;;;;21.00;14.67;;;;;21.66;50.10;100612.73;110544;1258;20377;-58
2022/04/21 06:06:17;;;;;;;;;17.67;16.67;;;;;21.69;50.09;100614.76;110522;1258;19533;-56
2022/04/21 06:08:44;;;;;;;;;16.00;14.00;;;;;21.71;49.94;100617.06;110696;1258;22954;-56
2022/04/21 06:11:13;;;;;;;;;13.00;13.00;;;;;21.70;50.20;100617.13;110450;1258;20969;-57
2022/04/21 06:13:40;;;;;;;;;16.33;14.67;;;;;21.69;49.67;100614.05;110429;1259;24414;-55
2022/04/21 06:16:08;;;;;;;;;16.50;14.50;;;;;21.71;49.71;100616.39;110170;1262;266474;-57
2022/04/21 06:18:36;;;;;;;;;17.67;17.00;;;;;21.69;50.47;100613.66;110657;1258;19396;-57
2022/04/21 06:21:03;;;;;;;;;17.00;14.00;;;;;21.68;51.18;100620.88;110747;1258;20131;-56
2022/04/21 06:23:31;;;;;;;;;20.00;16.50;;;;;21.70;51.95;100618.98;110697;1258;23837;-56
2022/04/21 06:26:00;;;;;;;;;17.33;14.67;;;;;21.72;52.41;100622.77;110664;1258;19125;-58
2022/04/21 06:28:27;;;;;;;;;18.00;17.00;;;;;21.71;52.76;100617.38;110689;1258;23318;-56
2022/04/21 06:30:55;;;;;;;;;21.00;21.00;;;;;21.72;52.55;100612.00;110317;1261;20608;-56
2022/04/21 06:33:22;;;;;;;;;17.33;17.33;;;;;21.72;52.66;100604.77;110402;1258;21278;-58
2022/04/21 06:35:49;;;;;;;;;17.00;14.00;;;;;21.74;52.96;100608.70;110372;1258;19593;-58
2022/04/21 06:38:17;;;;;;;;;14.00;13.00;;;;;21.74;52.87;100608.46;110673;1259;20457;-55
2022/04/21 06:40:44;;;;;;;;;17.50;17.00;;;;;21.72;52.47;100606.62;110584;1258;19329;-57
2022/04/21 06:48:42;;;;;;;;;19.00;18.67;;;;;21.68;51.38;100605.05;110662;1258;20913;-55
2022/04/21 06:51:09;;;;;;;;;12.00;12.00;;;;;21.67;51.15;100603.95;110553;1258;23839;-55
2022/04/21 06:53:36;;;;;;;;;13.00;13.00;;;;;21.66;51.20;100606.70;110418;1261;20383;-58
2022/04/21 06:56:04;;;;;;;;;17.00;17.00;;;;;21.66;51.01;100604.19;110723;1258;19267;-54
2022/04/21 06:58:31;;;;;;;;;12.67;12.67;;;;;21.67;51.26;100607.21;110546;1258;23039;-55
2022/04/21 07:00:59;;;;;;;;;13.00;12.00;;;;;21.69;52.04;100610.56;110673;1258;20386;-58
2022/04/21 07:03:26;;;;;;;;;13.33;13.33;;;;;21.69;52.16;100604.90;110445;1258;21128;-56
2022/04/21 07:05:55;;;;;;;;;16.67;13.00;;;;;21.70;52.22;100606.09;110435;1261;22124;-56
2022/04/21 07:08:23;;;;;;;;;13.00;12.00;;;;;21.69;51.41;100598.69;110438;1260;20695;-53
2022/04/21 07:10:50;;;;;;;;;13.00;13.00;;;;;21.69;51.91;100594.41;110510;1258;19183;-56
2022/04/21 07:13:17;;;;;;;;;13.00;12.00;;;;;21.66;51.87;100595.46;110523;1258;19570;-55
2022/04/21 07:15:44;;;;;;;;;16.00;13.67;;;;;21.67;51.48;100595.01;110496;1258;21733;-58
2022/04/21 07:18:13;;;;;;;;;14.67;13.00;;;;;21.67;51.97;100593.75;110435;1259;19418;-54
2022/04/21 07:20:40;;;;;;;;;15.00;14.00;;;;;21.64;51.57;100593.91;110556;1258;21071;-53
2022/04/21 07:23:08;;;;;;;;;13.50;13.50;;;;;21.61;51.50;100594.59;110458;1261;20297;-55
2022/04/21 07:25:35;;;;;;;;;13.33;12.33;;;;;21.58;51.20;100606.55;110494;1259;19357;-55
2022/04/21 07:28:03;;;;;;;;;13.67;12.33;;;;;21.58;51.26;100624.79;110404;1262;19569;-57
2022/04/21 07:30:31;;;;;;;;;14.00;13.00;;;;;21.57;50.66;100620.70;110445;1261;23610;-55
2022/04/21 07:32:59;;;;;;;;;17.00;16.50;;;;;21.58;50.34;100614.05;110429;1261;23562;-55
2022/04/21 07:35:26;;;;;;;;;13.67;13.00;;;;;21.58;50.11;100612.21;110419;1261;19584;-56
2022/04/21 07:37:54;;;;;;;;;13.33;13.33;;;;;21.61;49.83;100622.44;110452;1259;25053;-54
2022/04/21 07:40:23;;;;;;;;;14.00;13.00;;;;;21.65;49.49;100623.46;110559;1259;23097;-55
2022/04/21 07:42:51;;;;;;;;;13.67;13.00;;;;;21.62;50.39;100619.78;110499;1259;23234;-56
2022/04/21 07:45:18;;;;;;;;;17.00;16.00;;;;;21.58;50.59;100609.68;110491;1259;23011;-57
2022/04/21 07:47:46;;;;;;;;;14.00;13.33;;;;;21.54;50.35;100616.84;110495;1258;19153;-55
2022/04/21 07:50:13;;;;;;;;;17.00;15.00;;;;;21.53;50.12;100617.96;110514;1259;23479;-55
2022/04/21 07:55:25;;;;;;;;;17.00;16.00;;;;;21.51;49.85;100616.20;110386;1259;19230;-56
2022/04/21 07:57:53;;;;;;;;;13.00;12.33;;;;;21.51;49.30;100616.88;110367;1261;19662;-55
2022/04/21 08:00:20;;;;;;;;;13.00;13.00;;;;;21.52;49.34;100621.38;110441;1261;20972;-53
2022/04/21 08:02:47;;;;;;;;;13.50;13.00;;;;;21.49;49.49;100618.20;110414;1260;19305;-55
2022/04/21 08:05:15;;;;;;;;;13.00;12.00;;;;;21.49;49.46;100616.92;110399;1261;19535;-53
2022/04/21 08:07:42;;;;;;;;;13.00;12.67;;;;;21.49;49.34;100606.64;110434;1260;21826;-57
2022/04/21 08:10:09;;;;;;;;;12.00;11.33;;;;;21.49;49.30;100618.06;110458;1260;19133;-54
2022/04/21 08:12:37;;;;;;;;;14.00;13.00;;;;;21.49;49.40;100616.45;110367;1261;20900;-56
2022/04/21 08:15:06;;;;;;;;;13.00;13.00;;;;;21.49;49.35;100614.11;110371;1260;23087;-57
2022/04/21 08:17:33;;;;;;;;;13.00;12.33;;;;;21.48;49.71;100616.92;110428;1261;23192;-55
2022/04/21 08:20:00;;;;;;;;;13.00;12.00;;;;;21.47;49.62;100610.64;110334;1261;19742;-53
2022/04/21 08:22:28;;;;;;;;;13.33;12.00;;;;;21.47;49.44;100618.45;110444;1260;22985;-56
2022/04/21 08:33:11;;;;;;;;;101.33;77.00;;;;;21.56;49.59;100629.20;110401;1260;19103;-56
2022/04/21 08:35:38;;;;;;;;;135.00;97.50;;;;;21.59;49.64;100629.02;110405;1260;19933;-54
2022/04/21 08:38:07;;;;;;;;;188.25;134.50;;;;;21.60;49.58;100631.84;110373;1261;23633;-56
2022/04/21 08:40:35;;;;;;;;;190.25;133.00;;;;;21.61;49.76;100630.25;110418;1261;23244;-58
2022/04/21 08:43:02;;;;;;;;;240.50;178.75;;;;;21.59;49.82;100626.48;110435;1261;23337;-52
2022/04/21 08:45:30;;;;;;;;;217.75;160.25;;;;;21.59;49.94;100628.15;110252;1261;20286;-55
2022/04/21 08:47:58;;;;;;;;;162.25;116.00;;;;;21.58;49.79;100621.35;110416;1261;23161;-57
2022/04/21 08:50:26;;;;;;;;;115.00;89.00;;;;;21.57;49.46;100624.69;110386;1261;19768;-54
2022/04/21 08:52:53;;;;;;;;;106.33;86.33;;;;;21.53;49.56;100626.14;110430;1261;23336;-56
2022/04/21 08:55:21;;;;;;;;;102.00;73.00;;;;;21.49;49.42;100629.98;110432;1261;19196;-54
2022/04/21 08:57:49;;;;;;;;;89.00;67.00;;;;;21.45;49.19;100629.81;110394;1261;23810;-57
2022/04/21 09:00:17;;;;;;;;;85.00;61.00;;;;;21.40;49.07;100629.92;110417;1260;20233;-53
2022/04/21 09:02:44;;;;;;;;;84.00;59.67;;;;;21.33;48.94;100625.39;110410;1260;19094;-55
2022/04/21 09:05:11;;;;;;;;;80.00;59.50;;;;;21.41;49.20;100624.66;110374;1261;19558;-57
2022/04/21 09:07:39;;;;;;;;;72.67;55.67;;;;;21.48;48.95;100623.83;110458;1261;20477;-56
2022/04/21 09:10:06;;;;;;;;;76.67;54.00;;;;;21.49;49.07;100621.20;110414;1261;19306;-57
2022/04/21 09:12:35;;;;;;;;;70.00;52.00;;;;;21.51;49.05;100625.60;110433;1261;19531;-55
2022/04/21 09:15:03;;;;;;;;;71.67;51.00;;;;;21.57;49.12;100621.25;110401;1261;20360;-57
2022/04/21 09:17:30;;;;;;;;;65.33;51.33;;;;;21.62;50.76;100616.73;110390;1261;19292;-57
2022/04/21 09:19:58;;;;;;;;;66.00;49.67;;;;;21.66;50.98;100617.07;110407;1260;19894;-56
2022/04/21 09:22:25;;;;;;;;;70.33;52.33;;;;;21.70;51.40;100614.99;110494;1261;20318;-57
2022/04/21 09:24:53;;;;;;;;;67.33;52.00;;;;;21.73;51.54;100616.55;110431;1261;19225;-57
2022/04/21 09:27:20;;;;;;;;;63.67;50.00;;;;;21.75;50.83;100616.50;110424;1260;20310;-54
2022/04/21 09:29:47;;;;;;;;;61.67;45.00;;;;;21.70;50.69;100616.13;110444;1259;23899;-55
2022/04/21 09:32:15;;;;;;;;;52.33;42.33;;;;;21.64;50.73;100610.66;110445;1261;19439;-53
2022/04/21 09:34:45;;;;;;;;;57.33;42.00;;;;;21.58;50.84;100608.35;110506;1261;23278;-56
2022/04/21 09:37:13;;;;;;;;;48.67;41.33;;;;;21.61;50.99;100605.71;110457;1261;22994;-56
2022/04/21 09:39:40;;;;;;;;;56.00;42.00;;;;;21.68;50.81;100607.64;110398;1261;23774;-59
2022/04/21 09:42:07;;;;;;;;;54.67;42.00;;;;;21.72;51.56;100608.23;110411;1261;19584;-57
2022/04/21 09:47:20;;;;;;;;;49.33;42.67;;;;;21.75;51.51;100607.84;110390;1261;19349;-56
2022/04/21 09:49:48;;;;;;;;;53.00;41.00;;;;;21.76;51.52;100607.70;110883;1261;19638;-56
2022/04/21 09:52:15;;;;;;;;;47.00;39.00;;;;;21.79;51.36;100610.39;110465;1261;24414;-56
2022/04/21 09:54:45;;;;;;;;;42.00;34.33;;;;;21.81;51.35;100607.81;110426;1261;19361;-55
2022/04/21 09:57:13;;;;;;;;;43.33;35.33;;;;;21.82;51.17;100599.71;110420;1261;23758;-56
2022/04/21 09:59:40;;;;;;;;;47.00;38.33;;;;;21.80;51.01;100596.76;110350;1261;23559;-57
2022/04/21 10:02:07;;;;;;;;;47.00;38.00;;;;;21.80;50.82;100595.37;110414;1260;19312;-58
2022/04/21 10:04:35;;;;;;;;;38.33;34.67;;;;;21.80;50.64;100593.77;110431;1261;24143;-57
2022/04/21 10:07:02;;;;;;;;;46.33;37.33;;;;;21.79;50.50;100594.10;110432;1261;20358;-54
2022/04/21 10:09:29;;;;;;;;;41.67;33.00;;;;;21.78;50.46;100589.09;110431;1261;19408;-56
2022/04/21 10:11:59;;;;;;;;;38.00;35.00;;;;;21.78;50.48;100586.34;110311;1261;19590;-55
2022/04/21 10:14:27;;;;;;;;;38.00;34.33;;;;;21.78;50.66;100591.79;110308;1261;22914;-56
2022/04/21 10:16:54;;;;;;;;;46.50;34.00;;;;;21.75;50.49;100585.23;110311;1261;19665;-55
2022/04/21 10:19:22;;;;;;;;;39.00;36.00;;;;;21.76;50.77;100583.92;110308;1260;22350;-53
2022/04/21 10:21:49;;;;;;;;;35.33;28.67;;;;;21.76;50.58;100578.02;110457;1260;21032;-56
2022/04/21 10:24:17;;;;;;;;;35.00;30.67;;;;;21.73;49.99;100580.00;110459;1261;23922;-56
2022/04/21 10:26:44;;;;;;;;;34.00;30.50;;;;;21.68;49.67;100569.42;110218;1261;19564;-54
2022/04/21 10:29:11;;;;;;;;;34.00;29.33;;;;;21.69;50.22;100570.58;110382;1261;20307;-57
2022/04/21 10:31:39;;;;;;;;;31.67;28.67;;;;;21.67;49.42;100563.70;110281;1261;19377;-55
2022/04/21 10:34:06;;;;;;;;;35.67;25.00;;;;;21.66;49.56;100562.73;110357;1261;19641;-53
2022/04/21 10:36:33;;;;;;;;;29.33;25.33;;;;;21.64;48.84;100558.11;110392;1261;20286;-56
2022/04/21 10:39:01;;;;;;;;;25.50;21.00;;;;;21.63;48.84;100559.98;110429;1261;19198;-58
2022/04/21 10:41:28;;;;;;;;;21.00;20.33;;;;;21.63;48.81;100556.13;110456;1261;19479;-54
2022/04/21 10:43:55;;;;;;;;;28.00;24.67;;;;;21.66;48.66;100560.34;110450;1261;20455;-54
2022/04/21 10:46:24;;;;;;;;;25.00;22.00;;;;;21.68;48.72;100558.72;110407;1261;19396;-53
2022/04/21 10:48:52;;;;;;;;;29.00;24.00;;;;;21.71;48.54;100559.45;110247;1261;22702;-54
2022/04/21 10:51:19;;;;;;;;;28.00;25.00;;;;;21.71;48.49;100563.73;110354;1261;22515;-53
2022/04/21 10:59:16;;;;;;;;;20.33;20.00;;;;;21.65;48.93;100565.23;110401;1261;20405;-54
2022/04/21 11:01:44;;;;;;;;;23.67;20.67;;;;;21.64;49.00;100564.87;110481;1261;22085;-54
2022/04/21 11:04:11;;;;;;;;;24.00;21.00;;;;;21.61;48.97;100561.39;110355;1261;19606;-54
2022/04/21 11:06:40;;;;;;;;;26.00;21.67;;;;;21.61;49.09;100556.11;110386;1261;23099;-54
2022/04/21 11:09:08;;;;;;;;;28.67;22.67;;;;;21.59;48.92;100550.98;110410;1261;19372;-55
2022/04/21 11:11:35;;;;;;;;;25.00;21.00;;;;;21.59;49.08;100552.27;110419;1261;19644;-54
2022/04/21 11:14:03;;;;;;;;;24.00;21.00;;;;;21.59;49.05;100548.99;110482;1261;20320;-56
2022/04/21 11:16:30;;;;;;;;;21.33;20.67;;;;;21.57;48.87;100546.11;110471;1260;19330;-55
2022/04/21 11:18:57;;;;;;;;;22.00;20.33;;;;;21.58;48.92;100543.38;110426;1261;23112;-54
2022/04/21 11:21:26;;;;;;;;;27.67;23.67;;;;;21.57;48.81;100545.73;110412;1261;20662;-53
2022/04/21 11:23:53;;;;;;;;;22.67;19.33;;;;;21.56;49.12;100543.36;110424;1261;22496;-54
2022/04/21 11:26:21;;;;;;;;;22.33;21.33;;;;;21.56;48.97;100541.76;110447;1261;19530;-54
2022/04/21 11:28:48;;;;;;;;;27.33;21.00;;;;;21.57;48.99;100541.48;110405;1261;20258;-56
2022/04/21 11:31:15;;;;;;;;;18.67;18.00;;;;;21.55;48.84;100539.32;110410;1261;19123;-54
2022/04/21 11:33:44;;;;;;;;;25.33;21.33;;;;;21.54;48.84;100533.77;110263;1260;19566;-53
2022/04/21 11:36:11;;;;;;;;;22.00;21.00;;;;;21.55;49.06;100537.55;110282;1260;23606;-54
2022/04/21 11:38:39;;;;;;;;;25.00;22.00;;;;;21.55;49.02;100537.43;110417;1260;19300;-57
2022/04/21 11:41:07;;;;;;;;;20.00;18.67;;;;;21.55;48.82;100532.95;110432;1260;19898;-55
2022/04/21 11:43:35;;;;;;;;;24.00;24.00;;;;;21.55;48.82;100529.92;110497;1261;23289;-54
2022/04/21 11:46:03;;;;;;;;;23.33;20.67;;;;;21.54;48.91;100525.84;110421;1261;23754;-54
2022/04/21 11:48:30;;;;;;;;;20.00;18.67;;;;;21.54;48.62;100526.31;110452;1261;23058;-53